sensor_id;sensor_type;location;lat;lon;timestamp;P1;durP1;ratioP1;P2;durP2;ratioP2
40489;SDS011;26196;52.302;10.572;2022-12-18T00:03:15;13.18;;;8.50;;
40489;SDS011;26196;52.302;10.572;2022-12-18T00:07:16;12.40;;;8.13;;
40489;SDS011;26196;52.302;10.572;2022-12-18T00:11:17;11.85;;;8.02;;
40489;SDS011;26196;52.302;10.572;2022-12-18T00:15:19;10.68;;;8.02;;
40489;SDS011;26196;52.302;10.572;2022-12-18T00:19:19;13.23;;;10.02;;
40489;SDS011;26196;52.302;10.572;2022-12-18T00:23:20;13.27;;;8.45;;
40489;SDS011;26196;52.302;10.572;2022-12-18T00:27:20;12.75;;;8.93;;
40489;SDS011;26196;52.302;10.572;2022-12-18T00:31:21;13.52;;;8.25;;
40489;SDS011;26196;52.302;10.572;2022-12-18T00:35:23;11.85;;;8.32;;
40489;SDS011;26196;52.302;10.572;2022-12-18T00:39:23;15.80;;;8.68;;
40489;SDS011;26196;52.302;10.572;2022-12-18T00:43:24;11.93;;;8.90;;
40489;SDS011;26196;52.302;10.572;2022-12-18T00:47:24;11.73;;;8.02;;
40489;SDS011;26196;52.302;10.572;2022-12-18T00:51:25;13.87;;;7.87;;
40489;SDS011;26196;52.302;10.572;2022-12-18T00:55:25;12.75;;;8.25;;
40489;SDS011;26196;52.302;10.572;2022-12-18T00:59:26;12.73;;;8.18;;
40489;SDS011;26196;52.302;10.572;2022-12-18T01:03:26;12.32;;;8.45;;
40489;SDS011;26196;52.302;10.572;2022-12-18T01:07:26;11.93;;;8.48;;
40489;SDS011;26196;52.302;10.572;2022-12-18T01:11:26;11.65;;;8.43;;
40489;SDS011;26196;52.302;10.572;2022-12-18T01:15:27;11.85;;;8.02;;
40489;SDS011;26196;52.302;10.572;2022-12-18T01:19:27;11.90;;;7.75;;
40489;SDS011;26196;52.302;10.572;2022-12-18T01:23:28;11.35;;;7.82;;
40489;SDS011;26196;52.302;10.572;2022-12-18T01:27:28;11.80;;;7.57;;
40489;SDS011;26196;52.302;10.572;2022-12-18T01:31:29;13.00;;;7.88;;
40489;SDS011;26196;52.302;10.572;2022-12-18T01:35:31;12.57;;;7.80;;
40489;SDS011;26196;52.302;10.572;2022-12-18T01:39:32;11.93;;;7.30;;
40489;SDS011;26196;52.302;10.572;2022-12-18T01:43:42;12.73;;;8.05;;
40489;SDS011;26196;52.302;10.572;2022-12-18T01:47:49;11.13;;;8.25;;
40489;SDS011;26196;52.302;10.572;2022-12-18T01:51:52;10.85;;;7.55;;
40489;SDS011;26196;52.302;10.572;2022-12-18T01:55:53;11.27;;;7.55;;
40489;SDS011;26196;52.302;10.572;2022-12-18T01:59:57;11.65;;;7.88;;
40489;SDS011;26196;52.302;10.572;2022-12-18T02:17:21;11.85;;;8.13;;
40489;SDS011;26196;52.302;10.572;2022-12-18T02:29:31;12.73;;;8.37;;
40489;SDS011;26196;52.302;10.572;2022-12-18T02:33:36;10.40;;;7.53;;
40489;SDS011;26196;52.302;10.572;2022-12-18T02:37:39;12.27;;;8.02;;
40489;SDS011;26196;52.302;10.572;2022-12-18T02:41:42;12.10;;;8.00;;
40489;SDS011;26196;52.302;10.572;2022-12-18T02:45:52;10.63;;;7.15;;
40489;SDS011;26196;52.302;10.572;2022-12-18T02:54:09;14.48;;;9.40;;
40489;SDS011;26196;52.302;10.572;2022-12-18T03:02:56;11.32;;;6.65;;
40489;SDS011;26196;52.302;10.572;2022-12-18T03:07:02;13.05;;;8.55;;
40489;SDS011;26196;52.302;10.572;2022-12-18T03:11:06;9.85;;;8.30;;
40489;SDS011;26196;52.302;10.572;2022-12-18T03:19:22;11.15;;;7.18;;
40489;SDS011;26196;52.302;10.572;2022-12-18T03:23:27;10.35;;;6.88;;
40489;SDS011;26196;52.302;10.572;2022-12-18T03:27:32;12.17;;;7.73;;
40489;SDS011;26196;52.302;10.572;2022-12-18T03:31:37;11.93;;;8.00;;
40489;SDS011;26196;52.302;10.572;2022-12-18T03:35:41;13.75;;;7.65;;
40489;SDS011;26196;52.302;10.572;2022-12-18T03:39:42;11.25;;;7.80;;
40489;SDS011;26196;52.302;10.572;2022-12-18T03:43:55;12.82;;;8.15;;
40489;SDS011;26196;52.302;10.572;2022-12-18T03:48:10;13.55;;;8.52;;
40489;SDS011;26196;52.302;10.572;2022-12-18T03:52:28;11.90;;;8.20;;
40489;SDS011;26196;52.302;10.572;2022-12-18T03:56:39;11.73;;;7.70;;
40489;SDS011;26196;52.302;10.572;2022-12-18T04:00:44;14.40;;;8.25;;
40489;SDS011;26196;52.302;10.572;2022-12-18T04:04:47;12.38;;;7.72;;
40489;SDS011;26196;52.302;10.572;2022-12-18T04:08:52;10.32;;;6.60;;
40489;SDS011;26196;52.302;10.572;2022-12-18T04:12:55;9.90;;;7.00;;
40489;SDS011;26196;52.302;10.572;2022-12-18T04:16:57;11.90;;;7.68;;
40489;SDS011;26196;52.302;10.572;2022-12-18T04:20:57;12.50;;;8.07;;
40489;SDS011;26196;52.302;10.572;2022-12-18T04:24:57;12.20;;;6.85;;
40489;SDS011;26196;52.302;10.572;2022-12-18T04:28:58;12.05;;;7.75;;
40489;SDS011;26196;52.302;10.572;2022-12-18T04:32:58;11.48;;;7.78;;
40489;SDS011;26196;52.302;10.572;2022-12-18T04:36:58;11.63;;;7.65;;
40489;SDS011;26196;52.302;10.572;2022-12-18T04:40:59;12.52;;;7.32;;
40489;SDS011;26196;52.302;10.572;2022-12-18T04:44:59;10.40;;;6.88;;
40489;SDS011;26196;52.302;10.572;2022-12-18T04:48:59;15.00;;;8.27;;
40489;SDS011;26196;52.302;10.572;2022-12-18T04:53:00;11.73;;;6.93;;
40489;SDS011;26196;52.302;10.572;2022-12-18T04:57:00;11.93;;;7.43;;
40489;SDS011;26196;52.302;10.572;2022-12-18T05:01:00;11.55;;;7.28;;
40489;SDS011;26196;52.302;10.572;2022-12-18T05:05:01;10.68;;;7.00;;
40489;SDS011;26196;52.302;10.572;2022-12-18T05:09:01;10.13;;;6.65;;
40489;SDS011;26196;52.302;10.572;2022-12-18T05:13:02;11.50;;;7.03;;
40489;SDS011;26196;52.302;10.572;2022-12-18T05:17:02;10.60;;;6.68;;
40489;SDS011;26196;52.302;10.572;2022-12-18T05:21:03;10.35;;;6.68;;
40489;SDS011;26196;52.302;10.572;2022-12-18T05:25:03;10.43;;;6.15;;
40489;SDS011;26196;52.302;10.572;2022-12-18T05:29:04;11.00;;;6.35;;
40489;SDS011;26196;52.302;10.572;2022-12-18T05:33:04;11.38;;;7.03;;
40489;SDS011;26196;52.302;10.572;2022-12-18T05:37:05;12.45;;;7.65;;
40489;SDS011;26196;52.302;10.572;2022-12-18T05:41:05;10.27;;;7.85;;
40489;SDS011;26196;52.302;10.572;2022-12-18T05:45:06;10.65;;;7.03;;
40489;SDS011;26196;52.302;10.572;2022-12-18T05:49:07;11.45;;;6.85;;
40489;SDS011;26196;52.302;10.572;2022-12-18T05:53:07;10.82;;;6.85;;
40489;SDS011;26196;52.302;10.572;2022-12-18T05:57:08;9.20;;;5.85;;
40489;SDS011;26196;52.302;10.572;2022-12-18T06:01:19;11.57;;;5.65;;
40489;SDS011;26196;52.302;10.572;2022-12-18T06:05:22;9.65;;;6.22;;
40489;SDS011;26196;52.302;10.572;2022-12-18T06:09:22;9.93;;;6.27;;
40489;SDS011;26196;52.302;10.572;2022-12-18T06:13:22;11.35;;;6.43;;
40489;SDS011;26196;52.302;10.572;2022-12-18T06:17:23;9.55;;;6.20;;
40489;SDS011;26196;52.302;10.572;2022-12-18T06:21:23;9.32;;;6.25;;
40489;SDS011;26196;52.302;10.572;2022-12-18T06:25:23;12.38;;;6.53;;
40489;SDS011;26196;52.302;10.572;2022-12-18T06:29:24;9.30;;;5.90;;
40489;SDS011;26196;52.302;10.572;2022-12-18T06:33:27;12.80;;;5.88;;
40489;SDS011;26196;52.302;10.572;2022-12-18T06:37:28;10.95;;;6.80;;
40489;SDS011;26196;52.302;10.572;2022-12-18T06:41:28;12.25;;;6.90;;
40489;SDS011;26196;52.302;10.572;2022-12-18T06:45:28;9.70;;;6.40;;
40489;SDS011;26196;52.302;10.572;2022-12-18T06:49:29;9.80;;;6.13;;
40489;SDS011;26196;52.302;10.572;2022-12-18T06:53:29;10.63;;;6.47;;
40489;SDS011;26196;52.302;10.572;2022-12-18T06:57:30;12.48;;;6.88;;
40489;SDS011;26196;52.302;10.572;2022-12-18T07:01:30;11.45;;;6.93;;
40489;SDS011;26196;52.302;10.572;2022-12-18T07:05:30;12.33;;;6.57;;
40489;SDS011;26196;52.302;10.572;2022-12-18T07:09:30;12.60;;;7.28;;
40489;SDS011;26196;52.302;10.572;2022-12-18T07:13:31;10.90;;;6.82;;
40489;SDS011;26196;52.302;10.572;2022-12-18T07:17:31;11.82;;;6.63;;
40489;SDS011;26196;52.302;10.572;2022-12-18T07:21:32;10.75;;;7.38;;
40489;SDS011;26196;52.302;10.572;2022-12-18T07:25:35;12.10;;;7.68;;
40489;SDS011;26196;52.302;10.572;2022-12-18T07:29:36;11.88;;;6.97;;
40489;SDS011;26196;52.302;10.572;2022-12-18T07:33:36;10.55;;;6.65;;
40489;SDS011;26196;52.302;10.572;2022-12-18T07:37:38;15.60;;;8.48;;
40489;SDS011;26196;52.302;10.572;2022-12-18T07:41:38;11.10;;;6.80;;
40489;SDS011;26196;52.302;10.572;2022-12-18T07:45:42;14.18;;;8.07;;
40489;SDS011;26196;52.302;10.572;2022-12-18T07:49:43;11.85;;;6.50;;
40489;SDS011;26196;52.302;10.572;2022-12-18T07:53:44;11.43;;;6.53;;
40489;SDS011;26196;52.302;10.572;2022-12-18T07:57:44;11.30;;;7.13;;
40489;SDS011;26196;52.302;10.572;2022-12-18T08:01:45;11.52;;;6.80;;
40489;SDS011;26196;52.302;10.572;2022-12-18T08:05:45;11.77;;;7.10;;
40489;SDS011;26196;52.302;10.572;2022-12-18T08:09:46;11.07;;;6.65;;
40489;SDS011;26196;52.302;10.572;2022-12-18T08:13:46;11.45;;;7.00;;
40489;SDS011;26196;52.302;10.572;2022-12-18T08:17:46;11.35;;;6.68;;
40489;SDS011;26196;52.302;10.572;2022-12-18T08:21:47;12.00;;;7.10;;
40489;SDS011;26196;52.302;10.572;2022-12-18T08:25:47;11.95;;;7.50;;
40489;SDS011;26196;52.302;10.572;2022-12-18T08:29:47;10.70;;;6.45;;
40489;SDS011;26196;52.302;10.572;2022-12-18T08:33:48;12.70;;;7.13;;
40489;SDS011;26196;52.302;10.572;2022-12-18T08:37:50;13.35;;;8.30;;
40489;SDS011;26196;52.302;10.572;2022-12-18T08:41:50;16.20;;;8.90;;
40489;SDS011;26196;52.302;10.572;2022-12-18T08:46:09;17.00;;;8.75;;
40489;SDS011;26196;52.302;10.572;2022-12-18T08:50:09;12.25;;;7.70;;
40489;SDS011;26196;52.302;10.572;2022-12-18T08:54:11;16.00;;;7.88;;
40489;SDS011;26196;52.302;10.572;2022-12-18T08:58:13;14.05;;;7.47;;
40489;SDS011;26196;52.302;10.572;2022-12-18T09:02:13;14.95;;;8.05;;
40489;SDS011;26196;52.302;10.572;2022-12-18T09:06:14;16.30;;;8.13;;
40489;SDS011;26196;52.302;10.572;2022-12-18T09:10:16;14.07;;;7.38;;
40489;SDS011;26196;52.302;10.572;2022-12-18T09:14:17;15.05;;;8.07;;
40489;SDS011;26196;52.302;10.572;2022-12-18T09:18:17;12.73;;;7.15;;
40489;SDS011;26196;52.302;10.572;2022-12-18T09:22:19;13.50;;;7.90;;
40489;SDS011;26196;52.302;10.572;2022-12-18T09:26:20;13.95;;;7.00;;
40489;SDS011;26196;52.302;10.572;2022-12-18T09:30:21;17.50;;;9.10;;
40489;SDS011;26196;52.302;10.572;2022-12-18T09:34:21;12.15;;;7.40;;
40489;SDS011;26196;52.302;10.572;2022-12-18T09:38:22;15.80;;;7.75;;
40489;SDS011;26196;52.302;10.572;2022-12-18T09:42:23;14.25;;;6.65;;
40489;SDS011;26196;52.302;10.572;2022-12-18T09:46:36;13.70;;;7.70;;
40489;SDS011;26196;52.302;10.572;2022-12-18T09:50:42;14.52;;;7.15;;
40489;SDS011;26196;52.302;10.572;2022-12-18T09:55:20;11.90;;;6.45;;
40489;SDS011;26196;52.302;10.572;2022-12-18T09:59:18;13.02;;;6.22;;
40489;SDS011;26196;52.302;10.572;2022-12-18T10:03:23;11.90;;;7.15;;
40489;SDS011;26196;52.302;10.572;2022-12-18T10:07:30;11.38;;;5.97;;
40489;SDS011;26196;52.302;10.572;2022-12-18T10:16:07;11.55;;;5.65;;
40489;SDS011;26196;52.302;10.572;2022-12-18T10:20:34;11.18;;;6.65;;
40489;SDS011;26196;52.302;10.572;2022-12-18T10:28:54;11.80;;;6.27;;
40489;SDS011;26196;52.302;10.572;2022-12-18T10:33:00;9.35;;;5.72;;
40489;SDS011;26196;52.302;10.572;2022-12-18T10:37:03;11.98;;;6.53;;
40489;SDS011;26196;52.302;10.572;2022-12-18T10:45:20;9.38;;;5.78;;
40489;SDS011;26196;52.302;10.572;2022-12-18T10:49:31;10.90;;;6.38;;
40489;SDS011;26196;52.302;10.572;2022-12-18T10:53:34;11.07;;;6.13;;
40489;SDS011;26196;52.302;10.572;2022-12-18T10:57:37;10.98;;;6.50;;
40489;SDS011;26196;52.302;10.572;2022-12-18T11:01:47;10.65;;;5.40;;
40489;SDS011;26196;52.302;10.572;2022-12-18T11:06:00;8.27;;;5.25;;
40489;SDS011;26196;52.302;10.572;2022-12-18T11:10:03;7.50;;;5.13;;
40489;SDS011;26196;52.302;10.572;2022-12-18T11:14:05;8.00;;;5.57;;
40489;SDS011;26196;52.302;10.572;2022-12-18T11:18:20;11.50;;;6.72;;
40489;SDS011;26196;52.302;10.572;2022-12-18T11:22:28;10.85;;;6.57;;
40489;SDS011;26196;52.302;10.572;2022-12-18T11:26:34;13.75;;;7.30;;
40489;SDS011;26196;52.302;10.572;2022-12-18T11:30:36;14.38;;;8.77;;
40489;SDS011;26196;52.302;10.572;2022-12-18T11:34:36;12.60;;;7.70;;
40489;SDS011;26196;52.302;10.572;2022-12-18T11:38:37;9.93;;;6.95;;
40489;SDS011;26196;52.302;10.572;2022-12-18T11:42:48;10.13;;;6.65;;
40489;SDS011;26196;52.302;10.572;2022-12-18T11:47:09;9.48;;;6.32;;
40489;SDS011;26196;52.302;10.572;2022-12-18T11:51:41;11.57;;;6.78;;
40489;SDS011;26196;52.302;10.572;2022-12-18T12:00:19;8.88;;;5.50;;
40489;SDS011;26196;52.302;10.572;2022-12-18T12:04:31;10.82;;;6.32;;
40489;SDS011;26196;52.302;10.572;2022-12-18T12:09:24;9.88;;;6.35;;
40489;SDS011;26196;52.302;10.572;2022-12-18T12:13:35;12.35;;;6.38;;
40489;SDS011;26196;52.302;10.572;2022-12-18T12:17:50;10.52;;;6.45;;
40489;SDS011;26196;52.302;10.572;2022-12-18T12:22:20;8.70;;;5.32;;
40489;SDS011;26196;52.302;10.572;2022-12-18T12:26:45;9.37;;;6.27;;
40489;SDS011;26196;52.302;10.572;2022-12-18T12:31:04;8.33;;;5.73;;
40489;SDS011;26196;52.302;10.572;2022-12-18T12:39:37;7.85;;;5.45;;
40489;SDS011;26196;52.302;10.572;2022-12-18T12:43:44;8.38;;;5.00;;
40489;SDS011;26196;52.302;10.572;2022-12-18T12:47:47;8.45;;;5.25;;
40489;SDS011;26196;52.302;10.572;2022-12-18T12:51:57;9.90;;;5.65;;
40489;SDS011;26196;52.302;10.572;2022-12-18T12:56:04;7.82;;;5.50;;
40489;SDS011;26196;52.302;10.572;2022-12-18T13:08:51;9.07;;;4.15;;
40489;SDS011;26196;52.302;10.572;2022-12-18T13:21:25;17.05;;;6.05;;
40489;SDS011;26196;52.302;10.572;2022-12-18T13:25:29;43.85;;;10.73;;
40489;SDS011;26196;52.302;10.572;2022-12-18T13:29:42;23.75;;;7.65;;
40489;SDS011;26196;52.302;10.572;2022-12-18T13:33:45;31.58;;;9.70;;
40489;SDS011;26196;52.302;10.572;2022-12-18T13:37:53;27.13;;;11.27;;
40489;SDS011;26196;52.302;10.572;2022-12-18T13:42:31;17.85;;;7.07;;
40489;SDS011;26196;52.302;10.572;2022-12-18T13:46:44;17.52;;;6.18;;
40489;SDS011;26196;52.302;10.572;2022-12-18T13:50:51;15.13;;;6.00;;
40489;SDS011;26196;52.302;10.572;2022-12-18T13:54:55;11.00;;;4.93;;
40489;SDS011;26196;52.302;10.572;2022-12-18T13:59:14;14.75;;;6.50;;
40489;SDS011;26196;52.302;10.572;2022-12-18T14:03:25;10.07;;;5.10;;
40489;SDS011;26196;52.302;10.572;2022-12-18T14:07:28;7.45;;;4.55;;
40489;SDS011;26196;52.302;10.572;2022-12-18T14:11:30;10.63;;;4.25;;
40489;SDS011;26196;52.302;10.572;2022-12-18T14:15:31;8.40;;;3.85;;
40489;SDS011;26196;52.302;10.572;2022-12-18T14:19:33;7.53;;;4.20;;
40489;SDS011;26196;52.302;10.572;2022-12-18T14:23:35;8.02;;;4.28;;
40489;SDS011;26196;52.302;10.572;2022-12-18T14:27:37;9.45;;;4.07;;
40489;SDS011;26196;52.302;10.572;2022-12-18T14:31:41;10.37;;;4.50;;
40489;SDS011;26196;52.302;10.572;2022-12-18T14:35:43;9.80;;;4.30;;
40489;SDS011;26196;52.302;10.572;2022-12-18T14:43:54;9.80;;;4.63;;
40489;SDS011;26196;52.302;10.572;2022-12-18T14:47:54;7.78;;;4.00;;
40489;SDS011;26196;52.302;10.572;2022-12-18T14:51:56;7.00;;;4.05;;
40489;SDS011;26196;52.302;10.572;2022-12-18T14:55:58;7.18;;;3.95;;
40489;SDS011;26196;52.302;10.572;2022-12-18T15:00:05;5.68;;;4.25;;
40489;SDS011;26196;52.302;10.572;2022-12-18T15:04:23;8.50;;;5.00;;
40489;SDS011;26196;52.302;10.572;2022-12-18T15:08:28;7.18;;;5.00;;
40489;SDS011;26196;52.302;10.572;2022-12-18T15:12:34;6.75;;;4.45;;
40489;SDS011;26196;52.302;10.572;2022-12-18T15:16:35;8.88;;;4.88;;
40489;SDS011;26196;52.302;10.572;2022-12-18T15:24:41;11.32;;;5.85;;
40489;SDS011;26196;52.302;10.572;2022-12-18T15:37:25;11.05;;;6.38;;
40489;SDS011;26196;52.302;10.572;2022-12-18T15:41:26;8.82;;;5.38;;
40489;SDS011;26196;52.302;10.572;2022-12-18T15:45:26;9.93;;;5.32;;
40489;SDS011;26196;52.302;10.572;2022-12-18T15:49:27;8.60;;;5.43;;
40489;SDS011;26196;52.302;10.572;2022-12-18T15:53:29;5.80;;;3.85;;
40489;SDS011;26196;52.302;10.572;2022-12-18T15:57:32;7.05;;;4.82;;
40489;SDS011;26196;52.302;10.572;2022-12-18T16:01:32;8.25;;;4.35;;
40489;SDS011;26196;52.302;10.572;2022-12-18T16:05:33;7.80;;;5.03;;
40489;SDS011;26196;52.302;10.572;2022-12-18T16:09:33;6.82;;;4.60;;
40489;SDS011;26196;52.302;10.572;2022-12-18T16:13:34;8.80;;;5.95;;
40489;SDS011;26196;52.302;10.572;2022-12-18T16:17:34;8.23;;;4.97;;
40489;SDS011;26196;52.302;10.572;2022-12-18T16:21:34;7.22;;;4.43;;
40489;SDS011;26196;52.302;10.572;2022-12-18T16:25:35;5.22;;;3.58;;
40489;SDS011;26196;52.302;10.572;2022-12-18T16:29:35;5.97;;;4.28;;
40489;SDS011;26196;52.302;10.572;2022-12-18T16:33:35;7.47;;;4.43;;
40489;SDS011;26196;52.302;10.572;2022-12-18T16:37:36;7.32;;;4.20;;
40489;SDS011;26196;52.302;10.572;2022-12-18T16:41:36;7.45;;;4.50;;
40489;SDS011;26196;52.302;10.572;2022-12-18T16:45:36;6.17;;;4.97;;
40489;SDS011;26196;52.302;10.572;2022-12-18T16:49:37;7.13;;;5.23;;
40489;SDS011;26196;52.302;10.572;2022-12-18T16:53:38;6.95;;;4.88;;
40489;SDS011;26196;52.302;10.572;2022-12-18T16:57:38;8.77;;;5.65;;
40489;SDS011;26196;52.302;10.572;2022-12-18T17:01:38;7.93;;;5.28;;
40489;SDS011;26196;52.302;10.572;2022-12-18T17:05:40;8.70;;;5.40;;
40489;SDS011;26196;52.302;10.572;2022-12-18T17:09:41;11.48;;;5.40;;
40489;SDS011;26196;52.302;10.572;2022-12-18T17:13:41;8.75;;;5.30;;
40489;SDS011;26196;52.302;10.572;2022-12-18T17:17:42;9.40;;;5.00;;
40489;SDS011;26196;52.302;10.572;2022-12-18T17:21:42;9.65;;;5.13;;
40489;SDS011;26196;52.302;10.572;2022-12-18T17:25:43;9.48;;;5.05;;
40489;SDS011;26196;52.302;10.572;2022-12-18T17:29:44;7.32;;;5.32;;
40489;SDS011;26196;52.302;10.572;2022-12-18T17:33:44;7.75;;;4.97;;
40489;SDS011;26196;52.302;10.572;2022-12-18T17:37:45;8.23;;;5.47;;
40489;SDS011;26196;52.302;10.572;2022-12-18T17:41:46;10.05;;;6.22;;
40489;SDS011;26196;52.302;10.572;2022-12-18T17:45:48;8.38;;;4.82;;
40489;SDS011;26196;52.302;10.572;2022-12-18T17:49:48;8.52;;;5.88;;
40489;SDS011;26196;52.302;10.572;2022-12-18T17:53:49;8.80;;;4.73;;
40489;SDS011;26196;52.302;10.572;2022-12-18T17:57:49;8.65;;;4.45;;
40489;SDS011;26196;52.302;10.572;2022-12-18T18:01:50;6.32;;;4.38;;
40489;SDS011;26196;52.302;10.572;2022-12-18T18:05:54;6.20;;;4.07;;
40489;SDS011;26196;52.302;10.572;2022-12-18T18:09:55;7.30;;;4.65;;
40489;SDS011;26196;52.302;10.572;2022-12-18T18:13:56;7.55;;;3.90;;
40489;SDS011;26196;52.302;10.572;2022-12-18T18:18:00;7.97;;;4.82;;
40489;SDS011;26196;52.302;10.572;2022-12-18T18:22:01;6.85;;;4.50;;
40489;SDS011;26196;52.302;10.572;2022-12-18T18:26:04;7.22;;;4.45;;
40489;SDS011;26196;52.302;10.572;2022-12-18T18:30:07;9.07;;;5.22;;
40489;SDS011;26196;52.302;10.572;2022-12-18T18:34:27;6.82;;;4.90;;
40489;SDS011;26196;52.302;10.572;2022-12-18T18:38:29;10.00;;;5.45;;
40489;SDS011;26196;52.302;10.572;2022-12-18T18:42:29;10.13;;;4.18;;
40489;SDS011;26196;52.302;10.572;2022-12-18T18:46:30;7.35;;;4.22;;
40489;SDS011;26196;52.302;10.572;2022-12-18T18:50:30;8.13;;;4.28;;
40489;SDS011;26196;52.302;10.572;2022-12-18T18:54:31;7.50;;;4.72;;
40489;SDS011;26196;52.302;10.572;2022-12-18T18:58:31;6.78;;;4.00;;
40489;SDS011;26196;52.302;10.572;2022-12-18T19:02:32;8.18;;;4.50;;
40489;SDS011;26196;52.302;10.572;2022-12-18T19:06:33;7.18;;;4.40;;
40489;SDS011;26196;52.302;10.572;2022-12-18T19:10:33;6.35;;;4.25;;
40489;SDS011;26196;52.302;10.572;2022-12-18T19:14:38;8.00;;;4.93;;
40489;SDS011;26196;52.302;10.572;2022-12-18T19:18:38;10.18;;;4.45;;
40489;SDS011;26196;52.302;10.572;2022-12-18T19:22:39;7.43;;;4.70;;
40489;SDS011;26196;52.302;10.572;2022-12-18T19:26:40;9.25;;;4.80;;
40489;SDS011;26196;52.302;10.572;2022-12-18T19:30:40;7.40;;;4.90;;
40489;SDS011;26196;52.302;10.572;2022-12-18T19:34:40;5.97;;;3.88;;
40489;SDS011;26196;52.302;10.572;2022-12-18T19:38:41;7.18;;;4.60;;
40489;SDS011;26196;52.302;10.572;2022-12-18T19:42:41;6.65;;;4.43;;
40489;SDS011;26196;52.302;10.572;2022-12-18T19:46:42;6.57;;;4.15;;
40489;SDS011;26196;52.302;10.572;2022-12-18T19:50:45;6.65;;;4.32;;
40489;SDS011;26196;52.302;10.572;2022-12-18T19:54:45;6.90;;;4.20;;
40489;SDS011;26196;52.302;10.572;2022-12-18T19:58:46;7.18;;;4.47;;
40489;SDS011;26196;52.302;10.572;2022-12-18T20:02:47;9.57;;;4.95;;
40489;SDS011;26196;52.302;10.572;2022-12-18T20:06:48;8.68;;;4.70;;
40489;SDS011;26196;52.302;10.572;2022-12-18T20:10:50;7.80;;;5.00;;
40489;SDS011;26196;52.302;10.572;2022-12-18T20:14:51;6.93;;;4.32;;
40489;SDS011;26196;52.302;10.572;2022-12-18T20:18:51;7.32;;;4.20;;
40489;SDS011;26196;52.302;10.572;2022-12-18T20:22:53;9.93;;;5.55;;
40489;SDS011;26196;52.302;10.572;2022-12-18T20:26:54;5.55;;;4.10;;
40489;SDS011;26196;52.302;10.572;2022-12-18T20:30:59;6.88;;;3.63;;
40489;SDS011;26196;52.302;10.572;2022-12-18T20:35:00;7.13;;;4.90;;
40489;SDS011;26196;52.302;10.572;2022-12-18T20:39:01;8.02;;;4.57;;
40489;SDS011;26196;52.302;10.572;2022-12-18T20:43:03;7.60;;;4.30;;
40489;SDS011;26196;52.302;10.572;2022-12-18T20:47:03;11.10;;;4.72;;
40489;SDS011;26196;52.302;10.572;2022-12-18T20:51:08;7.60;;;4.50;;
40489;SDS011;26196;52.302;10.572;2022-12-18T20:55:13;7.43;;;4.32;;
40489;SDS011;26196;52.302;10.572;2022-12-18T20:59:14;5.50;;;3.90;;
40489;SDS011;26196;52.302;10.572;2022-12-18T21:03:14;8.80;;;5.90;;
40489;SDS011;26196;52.302;10.572;2022-12-18T21:07:15;8.23;;;5.35;;
40489;SDS011;26196;52.302;10.572;2022-12-18T21:15:37;6.65;;;3.97;;
40489;SDS011;26196;52.302;10.572;2022-12-18T21:19:38;7.53;;;4.07;;
40489;SDS011;26196;52.302;10.572;2022-12-18T21:23:38;9.30;;;5.45;;
40489;SDS011;26196;52.302;10.572;2022-12-18T21:27:38;8.48;;;4.28;;
40489;SDS011;26196;52.302;10.572;2022-12-18T21:31:39;8.80;;;5.10;;
40489;SDS011;26196;52.302;10.572;2022-12-18T21:35:40;9.07;;;4.30;;
40489;SDS011;26196;52.302;10.572;2022-12-18T21:39:40;6.97;;;4.63;;
40489;SDS011;26196;52.302;10.572;2022-12-18T21:43:40;6.32;;;4.53;;
40489;SDS011;26196;52.302;10.572;2022-12-18T21:47:59;6.72;;;4.72;;
40489;SDS011;26196;52.302;10.572;2022-12-18T21:51:59;9.65;;;5.18;;
40489;SDS011;26196;52.302;10.572;2022-12-18T21:56:00;9.85;;;5.88;;
40489;SDS011;26196;52.302;10.572;2022-12-18T22:00:00;8.38;;;5.75;;
40489;SDS011;26196;52.302;10.572;2022-12-18T22:04:02;8.00;;;5.03;;
40489;SDS011;26196;52.302;10.572;2022-12-18T22:08:02;6.30;;;4.03;;
40489;SDS011;26196;52.302;10.572;2022-12-18T22:12:02;8.82;;;5.25;;
40489;SDS011;26196;52.302;10.572;2022-12-18T22:16:03;8.27;;;4.28;;
40489;SDS011;26196;52.302;10.572;2022-12-18T22:20:04;7.82;;;5.03;;
40489;SDS011;26196;52.302;10.572;2022-12-18T22:24:05;6.38;;;4.53;;
40489;SDS011;26196;52.302;10.572;2022-12-18T22:28:28;6.97;;;4.13;;
40489;SDS011;26196;52.302;10.572;2022-12-18T22:32:47;7.53;;;4.70;;
40489;SDS011;26196;52.302;10.572;2022-12-18T22:36:47;7.32;;;4.63;;
40489;SDS011;26196;52.302;10.572;2022-12-18T22:40:48;9.30;;;5.20;;
40489;SDS011;26196;52.302;10.572;2022-12-18T22:44:48;10.50;;;5.07;;
40489;SDS011;26196;52.302;10.572;2022-12-18T22:48:48;7.65;;;4.47;;
40489;SDS011;26196;52.302;10.572;2022-12-18T22:52:49;9.52;;;4.70;;
40489;SDS011;26196;52.302;10.572;2022-12-18T22:56:49;8.90;;;4.13;;
40489;SDS011;26196;52.302;10.572;2022-12-18T23:00:50;7.13;;;5.00;;
40489;SDS011;26196;52.302;10.572;2022-12-18T23:04:50;6.97;;;4.00;;
40489;SDS011;26196;52.302;10.572;2022-12-18T23:08:51;6.60;;;4.30;;
40489;SDS011;26196;52.302;10.572;2022-12-18T23:12:53;9.32;;;5.00;;
40489;SDS011;26196;52.302;10.572;2022-12-18T23:16:54;7.72;;;4.45;;
40489;SDS011;26196;52.302;10.572;2022-12-18T23:20:54;5.57;;;4.00;;
40489;SDS011;26196;52.302;10.572;2022-12-18T23:24:54;6.82;;;4.03;;
40489;SDS011;26196;52.302;10.572;2022-12-18T23:28:54;7.50;;;4.13;;
40489;SDS011;26196;52.302;10.572;2022-12-18T23:32:55;6.88;;;3.72;;
40489;SDS011;26196;52.302;10.572;2022-12-18T23:36:56;6.67;;;4.40;;
40489;SDS011;26196;52.302;10.572;2022-12-18T23:40:57;7.85;;;4.47;;
40489;SDS011;26196;52.302;10.572;2022-12-18T23:44:58;8.10;;;5.03;;
40489;SDS011;26196;52.302;10.572;2022-12-18T23:48:58;6.45;;;3.65;;
40489;SDS011;26196;52.302;10.572;2022-12-18T23:53:00;6.50;;;4.05;;
40489;SDS011;26196;52.302;10.572;2022-12-18T23:57:01;6.90;;;4.45;;
